Terminal Aerodrome Forecast
Issued by NWS Nashville, TN

Home | Current Version | Previous Version | Text Only | Print | Product List | Glossary On
Versions: 1 2 3 4 5 6 7 8 9 10 11 12 13 14 15 16 17 18 19
000
FTUS44 KOHX 241721
TAFCSV
TAF
KCSV 241721Z 2418/2518 22005KT P6SM VCTS BKN035CB
     FM250100 00000KT P6SM SCT100
     FM250800 00000KT 3SM BR SCT100
     FM251200 20003KT P6SM SCT040=

USA.gov is the U.S. government's official web portal to all federal, state and local government web resources and services.